createdAt,value
2023-03-02T00:01:36.000Z,-2.50
2023-03-02T00:04:45.077Z,-2.50
2023-03-02T00:07:48.305Z,-2.50
2023-03-02T00:10:54.556Z,-2.50
2023-03-02T00:13:57.755Z,-2.50
2023-03-02T00:17:02.709Z,-2.60
2023-03-02T00:20:11.076Z,-2.60
2023-03-02T00:23:16.045Z,-2.60
2023-03-02T00:26:19.995Z,-2.70
2023-03-02T00:29:23.218Z,-2.70
2023-03-02T00:32:26.879Z,-2.70
2023-03-02T00:35:31.746Z,-2.80
2023-03-02T00:38:34.947Z,-2.20
2023-03-02T00:41:38.384Z,-2.60
2023-03-02T00:44:41.646Z,-2.40
2023-03-02T00:47:44.792Z,-2.50
2023-03-02T00:50:49.465Z,-2.60
2023-03-02T00:53:52.836Z,-2.60
2023-03-02T00:56:56.220Z,-2.70
2023-03-02T00:59:59.844Z,-2.70
2023-03-02T01:03:29.012Z,-2.80
2023-03-02T01:06:35.180Z,-2.80
2023-03-02T01:09:39.846Z,-2.70
2023-03-02T01:12:43.218Z,-2.80
2023-03-02T01:15:46.800Z,-2.80
2023-03-02T01:18:49.979Z,-3.00
2023-03-02T01:21:54.531Z,-2.50
2023-03-02T01:24:58.775Z,-1.60
2023-03-02T01:28:01.949Z,-3.10
2023-03-02T01:31:05.393Z,-3.10
2023-03-02T01:34:08.882Z,-3.20
2023-03-02T01:37:13.526Z,-3.20
2023-03-02T01:40:16.699Z,-3.10
2023-03-02T01:43:19.941Z,-3.10
2023-03-02T01:46:24.932Z,-3.00
2023-03-02T01:49:33.753Z,-2.80
2023-03-02T01:52:39.812Z,-2.70
2023-03-02T01:55:45.183Z,-2.60
2023-03-02T01:58:52.006Z,-2.60
2023-03-02T02:01:57.946Z,-2.50
2023-03-02T02:05:01.213Z,-2.30
2023-03-02T02:08:06.573Z,-2.20
2023-03-02T02:11:10.116Z,-1.80
2023-03-02T02:14:14.302Z,-1.10
2023-03-02T02:17:19.293Z,-1.40
2023-03-02T02:20:29.734Z,-0.20
2023-03-02T02:23:41.402Z,-1.70
2023-03-02T02:26:48.631Z,-1.60
2023-03-02T02:29:53.649Z,-1.10
2023-03-02T02:32:58.441Z,-1.60
2023-03-02T02:36:07.485Z,-1.40
2023-03-02T02:39:18.880Z,-1.40
2023-03-02T02:42:26.345Z,-1.30
2023-03-02T02:45:29.754Z,-0.50
2023-03-02T02:48:33.623Z,-1.10
2023-03-02T02:51:36.847Z,-1.00
2023-03-02T02:54:40.824Z,0.20
2023-03-02T02:57:45.668Z,-0.70
2023-03-02T03:00:51.449Z,-0.70
2023-03-02T03:03:57.033Z,-0.60
2023-03-02T03:07:02.414Z,-0.50
2023-03-02T03:10:09.903Z,-0.60
2023-03-02T03:13:14.629Z,-0.60
2023-03-02T03:16:19.875Z,-0.30
2023-03-02T03:19:27.068Z,-0.40
2023-03-02T03:22:31.053Z,-0.40
2023-03-02T03:25:35.006Z,-0.20
2023-03-02T03:28:39.972Z,-0.20
2023-03-02T03:31:43.378Z,-0.20
2023-03-02T03:34:48.545Z,-0.10
2023-03-02T03:37:58.540Z,0.00
2023-03-02T03:41:03.138Z,0.10
2023-03-02T03:44:08.145Z,0.10
2023-03-02T03:47:13.353Z,0.10
2023-03-02T03:50:16.950Z,0.20
2023-03-02T03:53:20.452Z,0.20
2023-03-02T03:56:23.756Z,0.20
2023-03-02T03:59:28.659Z,0.30
2023-03-02T04:02:35.443Z,0.30
2023-03-02T04:05:38.765Z,0.30
2023-03-02T04:08:42.092Z,0.20
2023-03-02T04:11:46.685Z,0.30
2023-03-02T04:14:51.793Z,0.30
2023-03-02T04:17:55.531Z,0.40
2023-03-02T04:20:59.767Z,0.30
2023-03-02T04:24:03.652Z,0.40
2023-03-02T04:27:06.852Z,0.70
2023-03-02T04:30:14.966Z,0.40
2023-03-02T04:33:18.215Z,0.40
2023-03-02T04:36:21.758Z,0.40
2023-03-02T04:39:26.086Z,0.50
2023-03-02T04:42:29.466Z,0.50
2023-03-02T04:45:34.200Z,0.40
2023-03-02T04:48:37.406Z,0.40
2023-03-02T04:51:42.852Z,0.40
2023-03-02T04:54:45.993Z,0.50
2023-03-02T04:57:49.242Z,0.40
2023-03-02T05:00:54.761Z,0.50
2023-03-02T05:03:58.047Z,0.50
2023-03-02T05:07:01.310Z,0.40
2023-03-02T05:10:04.817Z,0.50
2023-03-02T05:13:08.452Z,0.50
2023-03-02T05:16:13.270Z,0.50
2023-03-02T05:19:17.109Z,0.50
2023-03-02T05:22:20.266Z,0.50
2023-03-02T05:25:23.844Z,0.70
2023-03-02T05:28:27.538Z,0.50
2023-03-02T05:31:35.373Z,0.50
2023-03-02T05:34:38.620Z,0.50
2023-03-02T05:37:44.577Z,0.80
2023-03-02T05:40:48.457Z,0.60
2023-03-02T05:43:52.250Z,0.70
2023-03-02T05:46:56.967Z,0.70
2023-03-02T05:50:00.335Z,0.70
2023-03-02T05:53:03.769Z,0.80
2023-03-02T05:56:08.008Z,0.80
2023-03-02T05:59:11.140Z,0.70
2023-03-02T06:02:15.763Z,0.80
2023-03-02T06:05:22.682Z,0.70
2023-03-02T06:08:26.128Z,0.80
2023-03-02T06:11:30.295Z,0.80
2023-03-02T06:14:34.702Z,0.80
2023-03-02T06:17:39.535Z,0.70
2023-03-02T06:20:43.278Z,0.90
2023-03-02T06:23:46.503Z,1.10
2023-03-02T06:26:49.700Z,1.10
2023-03-02T06:29:53.324Z,1.20
2023-03-02T06:32:57.876Z,1.20
2023-03-02T06:36:01.199Z,1.10
2023-03-02T06:39:04.753Z,1.20
2023-03-02T06:42:07.992Z,1.30
2023-03-02T06:45:13.006Z,1.40
2023-03-02T06:48:18.203Z,1.40
2023-03-02T06:51:21.444Z,1.50
2023-03-02T06:54:24.574Z,1.50
2023-03-02T06:57:33.550Z,1.40
2023-03-02T07:00:36.826Z,1.60
2023-03-02T07:03:41.450Z,1.60
2023-03-02T07:06:44.685Z,1.60
2023-03-02T07:09:47.885Z,1.70
2023-03-02T07:12:51.044Z,1.80
2023-03-02T07:15:54.882Z,1.80
2023-03-02T07:18:59.424Z,1.80
2023-03-02T07:22:02.614Z,1.90
2023-03-02T07:25:06.682Z,1.90
2023-03-02T07:28:10.444Z,2.10
2023-03-02T07:31:13.773Z,2.10
2023-03-02T07:34:18.337Z,2.20
2023-03-02T07:37:21.499Z,2.20
2023-03-02T07:40:24.698Z,2.30
2023-03-02T07:43:29.262Z,2.40
2023-03-02T07:46:32.708Z,2.40
2023-03-02T07:49:37.306Z,2.30
2023-03-02T07:52:40.665Z,2.30
2023-03-02T07:55:43.908Z,2.40
2023-03-02T07:58:47.309Z,2.40
2023-03-02T08:01:50.890Z,2.40
2023-03-02T08:04:55.706Z,2.30
2023-03-02T08:07:59.083Z,2.30
2023-03-02T08:11:06.403Z,2.40
2023-03-02T08:14:09.754Z,2.60
2023-03-02T08:17:12.929Z,2.70
2023-03-02T08:20:17.575Z,2.70
2023-03-02T08:23:21.220Z,2.70
2023-03-02T08:26:24.389Z,2.80
2023-03-02T08:29:27.641Z,2.90
2023-03-02T08:32:30.841Z,2.90
2023-03-02T08:35:35.477Z,2.90
2023-03-02T08:38:38.736Z,2.90
2023-03-02T08:41:42.084Z,3.00
2023-03-02T08:44:45.275Z,3.00
2023-03-02T08:47:48.407Z,3.00
2023-03-02T08:51:01.912Z,2.90
2023-03-02T08:54:05.308Z,2.90
2023-03-02T08:57:12.506Z,3.00
2023-03-02T09:00:16.922Z,2.90
2023-03-02T09:03:20.076Z,2.80
2023-03-02T09:06:27.418Z,2.60
2023-03-02T09:09:31.903Z,2.60
2023-03-02T09:12:35.430Z,2.70
2023-03-02T09:15:38.709Z,2.90
2023-03-02T09:18:42.645Z,2.90
2023-03-02T09:21:47.234Z,2.90
2023-03-02T09:24:50.507Z,2.90
2023-03-02T09:27:53.683Z,3.00
2023-03-02T09:31:00.611Z,3.00
2023-03-02T09:34:04.891Z,3.10
2023-03-02T09:37:09.538Z,3.00
2023-03-02T09:40:19.633Z,3.00
2023-03-02T09:43:32.750Z,3.00
2023-03-02T09:46:45.071Z,3.10
2023-03-02T09:49:59.122Z,3.10
2023-03-02T09:53:25.624Z,3.20
2023-03-02T09:56:29.124Z,3.10
2023-03-02T09:59:39.417Z,3.20
2023-03-02T10:02:49.246Z,3.20
2023-03-02T10:05:54.625Z,3.20
2023-03-02T10:08:59.660Z,3.20
2023-03-02T10:12:17.278Z,3.20
2023-03-02T10:15:27.169Z,3.50
2023-03-02T10:18:35.390Z,3.70
2023-03-02T10:21:41.577Z,3.80
2023-03-02T10:24:53.045Z,3.80
2023-03-02T10:28:02.921Z,4.00
2023-03-02T10:31:10.865Z,3.80
2023-03-02T10:34:14.865Z,4.00
2023-03-02T10:37:22.882Z,4.10
2023-03-02T10:40:40.609Z,4.10
2023-03-02T10:43:46.540Z,4.20
2023-03-02T10:46:51.211Z,4.10
2023-03-02T10:49:55.321Z,4.00
2023-03-02T10:53:00.714Z,3.90
2023-03-02T10:56:07.278Z,3.60
2023-03-02T10:59:40.887Z,3.50
2023-03-02T11:02:51.608Z,3.40
2023-03-02T11:05:54.852Z,3.20
2023-03-02T11:09:02.964Z,3.20
2023-03-02T11:12:16.319Z,3.30
2023-03-02T11:15:25.090Z,3.10
2023-03-02T11:18:33.392Z,3.30
2023-03-02T11:21:41.747Z,3.30
2023-03-02T11:24:51.180Z,3.20
2023-03-02T11:28:00.815Z,3.20
2023-03-02T11:31:08.256Z,3.10
2023-03-02T11:34:29.667Z,3.10
2023-03-02T11:37:40.864Z,3.10
2023-03-02T11:40:48.177Z,3.20
2023-03-02T11:43:53.607Z,3.10
2023-03-02T11:47:01.099Z,3.30
2023-03-02T11:50:07.810Z,3.10
2023-03-02T11:53:18.048Z,2.80
2023-03-02T11:56:21.574Z,3.00
2023-03-02T11:59:28.862Z,3.30
2023-03-02T12:02:32.176Z,3.30
2023-03-02T12:05:37.999Z,3.30
2023-03-02T12:08:43.870Z,3.40
2023-03-02T12:11:47.561Z,3.30
2023-03-02T12:14:52.978Z,3.10
2023-03-02T12:17:56.242Z,3.10
2023-03-02T12:21:02.218Z,3.20
2023-03-02T12:24:06.293Z,3.00
2023-03-02T12:27:26.517Z,3.10
2023-03-02T12:30:31.615Z,3.10
2023-03-02T12:33:42.403Z,3.10
2023-03-02T12:36:46.036Z,3.00
2023-03-02T12:40:17.917Z,3.00
2023-03-02T12:43:32.996Z,2.90
2023-03-02T12:46:40.055Z,3.10
2023-03-02T12:49:51.158Z,3.00
2023-03-02T12:53:03.062Z,3.00
2023-03-02T12:56:08.933Z,2.80
2023-03-02T12:59:22.305Z,2.70
2023-03-02T13:02:28.637Z,2.70
2023-03-02T13:05:34.680Z,2.70
2023-03-02T13:08:38.282Z,2.80
2023-03-02T13:11:44.409Z,2.90
2023-03-02T13:14:53.126Z,2.80
2023-03-02T13:18:00.648Z,2.80
2023-03-02T13:21:05.702Z,2.80
2023-03-02T13:24:27.473Z,2.90
2023-03-02T13:27:33.853Z,3.00
2023-03-02T13:30:47.679Z,3.00
2023-03-02T13:33:54.569Z,3.00
2023-03-02T13:36:57.990Z,3.00
2023-03-02T13:40:03.252Z,2.90
2023-03-02T13:43:20.273Z,2.80
2023-03-02T13:46:36.311Z,3.00
2023-03-02T13:49:41.260Z,3.00
2023-03-02T13:52:45.167Z,3.00
2023-03-02T13:55:49.706Z,3.10
2023-03-02T13:58:53.266Z,3.20
2023-03-02T14:01:56.633Z,3.30
2023-03-02T14:05:01.362Z,3.40
2023-03-02T14:08:06.873Z,3.40
2023-03-02T14:11:13.115Z,3.30
2023-03-02T14:14:20.578Z,3.30
2023-03-02T14:17:25.215Z,3.40
2023-03-02T14:20:29.912Z,3.40
2023-03-02T14:23:33.760Z,3.40
2023-03-02T14:26:39.309Z,3.30
2023-03-02T14:29:43.280Z,3.30
2023-03-02T14:32:46.713Z,3.30
2023-03-02T14:35:53.963Z,3.30
2023-03-02T14:38:58.892Z,3.30
2023-03-02T14:42:02.541Z,3.20
2023-03-02T14:45:06.586Z,3.10
2023-03-02T14:48:09.842Z,3.10
2023-03-02T14:51:21.799Z,3.10
2023-03-02T14:54:25.346Z,3.10
2023-03-02T14:57:30.423Z,2.90
2023-03-02T15:00:33.794Z,2.90
2023-03-02T15:03:37.324Z,2.90
2023-03-02T15:06:44.228Z,2.80
2023-03-02T15:09:48.146Z,2.80
2023-03-02T15:12:51.706Z,2.80
2023-03-02T15:15:54.940Z,2.80
2023-03-02T15:18:58.999Z,2.80
2023-03-02T15:22:03.868Z,2.70
2023-03-02T15:25:07.711Z,2.70
2023-03-02T15:28:11.316Z,2.70
2023-03-02T15:31:16.353Z,2.70
2023-03-02T15:34:19.781Z,2.70
2023-03-02T15:37:24.399Z,2.60
2023-03-02T15:40:27.615Z,2.50
2023-03-02T15:43:31.056Z,2.50
2023-03-02T15:46:34.533Z,2.40
2023-03-02T15:49:38.561Z,2.30
2023-03-02T15:52:43.315Z,2.30
2023-03-02T15:55:46.618Z,2.20
2023-03-02T15:58:50.886Z,2.10
2023-03-02T16:01:54.777Z,2.10
2023-03-02T16:04:58.194Z,2.10
2023-03-02T16:08:02.919Z,2.10
2023-03-02T16:11:08.082Z,2.00
2023-03-02T16:14:14.093Z,2.00
2023-03-02T16:17:19.106Z,2.00
2023-03-02T16:20:22.484Z,1.90
2023-03-02T16:23:27.185Z,1.90
2023-03-02T16:26:30.627Z,1.90
2023-03-02T16:29:34.043Z,1.90
2023-03-02T16:32:37.604Z,1.90
2023-03-02T16:35:41.018Z,1.90
2023-03-02T16:38:45.850Z,1.80
2023-03-02T16:41:49.067Z,1.80
2023-03-02T16:44:52.570Z,1.80
2023-03-02T16:47:55.968Z,1.80
2023-03-02T16:50:59.811Z,1.70
2023-03-02T16:54:05.122Z,1.70
2023-03-02T16:57:09.511Z,1.70
2023-03-02T17:00:16.758Z,1.60
2023-03-02T17:03:20.351Z,1.60
2023-03-02T17:06:24.701Z,1.60
2023-03-02T17:09:29.450Z,1.90
2023-03-02T17:12:32.879Z,1.60
2023-03-02T17:15:36.300Z,1.60
2023-03-02T17:18:40.924Z,1.50
2023-03-02T17:21:44.556Z,1.50
2023-03-02T17:24:49.257Z,1.50
2023-03-02T17:27:53.427Z,1.50
2023-03-02T17:30:56.833Z,1.40
2023-03-02T17:34:00.151Z,1.40
2023-03-02T17:37:03.418Z,1.40
2023-03-02T17:40:12.795Z,1.40
2023-03-02T17:43:16.125Z,1.40
2023-03-02T17:46:22.778Z,1.40
2023-03-02T17:49:26.372Z,1.40
2023-03-02T17:52:30.054Z,1.30
2023-03-02T17:55:34.897Z,1.30
2023-03-02T17:58:45.002Z,1.30
2023-03-02T18:01:49.015Z,1.20
2023-03-02T18:04:52.601Z,1.20
2023-03-02T18:07:56.895Z,1.20
2023-03-02T18:11:01.935Z,1.10
2023-03-02T18:14:08.072Z,1.10
2023-03-02T18:17:12.501Z,1.10
2023-03-02T18:20:16.422Z,1.00
2023-03-02T18:23:21.905Z,1.00
2023-03-02T18:26:27.045Z,1.00
2023-03-02T18:29:30.451Z,0.60
2023-03-02T18:32:36.481Z,1.00
2023-03-02T18:35:39.968Z,1.00
2023-03-02T18:38:43.800Z,1.00
2023-03-02T18:41:49.713Z,0.90
2023-03-02T18:44:53.053Z,0.90
2023-03-02T18:47:56.608Z,0.90
2023-03-02T18:51:00.417Z,0.90
2023-03-02T18:54:03.730Z,0.90
2023-03-02T18:57:08.941Z,0.90
2023-03-02T19:00:18.131Z,0.90
2023-03-02T19:03:22.461Z,0.80
2023-03-02T19:06:26.093Z,0.90
2023-03-02T19:09:29.395Z,0.80
2023-03-02T19:12:35.276Z,0.80
2023-03-02T19:15:39.940Z,0.80
2023-03-02T19:18:43.250Z,0.80
2023-03-02T19:21:46.745Z,0.80
2023-03-02T19:24:50.504Z,0.80
2023-03-02T19:27:56.561Z,0.80
2023-03-02T19:31:04.085Z,0.90
2023-03-02T19:34:07.356Z,0.90
2023-03-02T19:37:10.844Z,0.80
2023-03-02T19:40:17.813Z,0.90
2023-03-02T19:43:24.024Z,0.80
2023-03-02T19:46:27.325Z,0.80
2023-03-02T19:49:30.673Z,0.80
2023-03-02T19:52:34.186Z,0.80
2023-03-02T19:55:37.606Z,0.80
2023-03-02T19:58:47.627Z,0.80
2023-03-02T20:01:52.899Z,0.80
2023-03-02T20:04:56.442Z,0.80
2023-03-02T20:07:59.739Z,0.80
2023-03-02T20:11:03.557Z,0.70
2023-03-02T20:14:08.270Z,0.70
2023-03-02T20:17:12.074Z,0.70
2023-03-02T20:20:15.317Z,0.80
2023-03-02T20:23:19.145Z,0.70
2023-03-02T20:26:24.426Z,0.70
2023-03-02T20:29:29.605Z,0.70
2023-03-02T20:32:33.161Z,0.70
2023-03-02T20:35:40.849Z,0.70
2023-03-02T20:38:47.004Z,0.60
2023-03-02T20:41:50.859Z,0.60
2023-03-02T20:44:56.999Z,0.60
2023-03-02T20:48:00.678Z,0.60
2023-03-02T20:51:04.457Z,0.60
2023-03-02T20:54:09.719Z,0.60
2023-03-02T20:57:17.017Z,0.60
2023-03-02T21:00:24.212Z,0.60
2023-03-02T21:03:27.785Z,0.60
2023-03-02T21:06:33.392Z,0.50
2023-03-02T21:09:37.102Z,0.60
2023-03-02T21:12:40.393Z,0.50
2023-03-02T21:15:45.215Z,0.50
2023-03-02T21:18:48.808Z,0.60
2023-03-02T21:21:52.496Z,0.40
2023-03-02T21:24:55.751Z,0.40
2023-03-02T21:27:59.626Z,0.30
2023-03-02T21:31:06.820Z,0.30
2023-03-02T21:34:10.263Z,0.30
2023-03-02T21:37:13.575Z,0.20
2023-03-02T21:40:19.585Z,0.10
2023-03-02T21:43:22.929Z,0.20
2023-03-02T21:46:27.849Z,0.10
2023-03-02T21:49:31.914Z,0.00
2023-03-02T21:52:35.158Z,0.00
2023-03-02T21:55:38.410Z,-0.20
2023-03-02T21:58:41.944Z,-0.30
2023-03-02T22:01:47.322Z,-0.50
2023-03-02T22:04:50.652Z,-0.70
2023-03-02T22:07:53.941Z,-0.90
2023-03-02T22:10:57.195Z,-1.10
2023-03-02T22:14:03.547Z,-1.20
2023-03-02T22:17:18.304Z,-1.30
2023-03-02T22:20:22.029Z,-1.40
2023-03-02T22:23:27.729Z,-1.50
2023-03-02T22:26:32.872Z,-1.60
2023-03-02T22:29:43.090Z,-1.50
2023-03-02T22:32:48.014Z,-1.40
2023-03-02T22:35:53.591Z,-1.20
2023-03-02T22:39:12.941Z,-1.20
2023-03-02T22:42:18.615Z,-1.00
2023-03-02T22:45:23.130Z,-1.00
2023-03-02T22:48:31.672Z,-1.00
2023-03-02T22:51:35.693Z,-0.90
2023-03-02T22:54:39.500Z,-0.90
2023-03-02T22:57:43.855Z,-0.90
2023-03-02T23:00:47.856Z,-0.90
2023-03-02T23:03:55.242Z,-0.90
2023-03-02T23:07:00.026Z,-0.90
2023-03-02T23:10:03.219Z,-0.80
2023-03-02T23:13:06.343Z,-0.70
2023-03-02T23:16:16.744Z,-0.80
2023-03-02T23:19:21.570Z,-0.80
2023-03-02T23:22:28.514Z,-0.80
2023-03-02T23:25:31.832Z,-0.80
2023-03-02T23:28:34.996Z,-0.80
2023-03-02T23:31:38.240Z,-0.80
2023-03-02T23:34:43.214Z,-0.80
2023-03-02T23:37:46.382Z,-0.80
2023-03-02T23:40:49.892Z,-0.90
2023-03-02T23:43:53.075Z,-0.80
2023-03-02T23:46:56.337Z,-1.00
2023-03-02T23:50:00.889Z,-1.00
2023-03-02T23:53:04.094Z,-1.00
2023-03-02T23:56:08.003Z,-0.70
2023-03-02T23:59:11.124Z,-1.00
